Time;durP1;ratioP1;P1;durP2;ratioP2;P2;SDS_P1;SDS_P2;PMS_P1;PMS_P2;Temp;Humidity;BMP_temperature;BMP_pressure;BME280_temperature;BME280_humidity;BME280_pressure;Samples;Min_cycle;Max_cycle;Signal;HPM_P1;HPM_P2
2021/12/25 00:02:23;;;;;;;;;3.60;3.60;;;;;8.18;52.12;97455.22;6212824;28;98015;-66
2021/12/25 00:05:27;;;;;;;;;5.60;4.60;;;;;8.16;52.25;97460.00;6211728;28;96384;-64
2021/12/25 00:08:32;;;;;;;;;5.60;4.60;;;;;8.11;52.28;97459.91;6212534;28;97088;-64
2021/12/25 00:11:35;;;;;;;;;6.00;5.40;;;;;8.14;52.32;97467.50;6204559;28;96950;-67
2021/12/25 00:14:38;;;;;;;;;3.00;3.00;;;;;8.12;52.25;97476.84;6212657;28;96975;-65
2021/12/25 00:17:42;;;;;;;;;6.00;5.00;;;;;8.10;52.39;97449.44;6211717;28;97370;-65
2021/12/25 00:20:46;;;;;;;;;4.40;4.00;;;;;8.07;52.74;97472.19;6208491;28;97526;-65
2021/12/25 00:23:51;;;;;;;;;5.40;5.00;;;;;7.99;52.71;97469.09;6207895;28;97251;-65
2021/12/25 00:27:00;;;;;;;;;5.00;5.00;;;;;7.92;52.85;97468.41;6207452;28;96860;-67
2021/12/25 00:30:15;;;;;;;;;4.00;3.00;;;;;7.87;53.09;97477.19;6211776;28;97486;-67
2021/12/25 00:33:34;;;;;;;;;5.00;4.75;;;;;7.79;53.16;97486.44;6211531;28;96564;-66
2021/12/25 00:36:37;;;;;;;;;3.80;3.80;;;;;7.83;53.27;97490.25;6208440;28;97645;-65
2021/12/25 00:39:43;;;;;;;;;5.00;5.00;;;;;7.85;53.13;97498.06;6207007;28;97952;-67
2021/12/25 00:42:46;;;;;;;;;5.00;5.00;;;;;7.88;53.01;97497.59;6220850;28;97862;-67
2021/12/25 00:45:50;;;;;;;;;6.00;5.00;;;;;7.88;53.22;97518.22;6190385;28;96609;-65
2021/12/25 00:48:53;;;;;;;;;6.00;6.00;;;;;7.81;53.14;97521.88;6195307;28;97397;-65
2021/12/25 00:51:57;;;;;;;;;8.00;7.00;;;;;7.81;53.36;97535.31;6225053;28;96671;-65
2021/12/25 00:55:04;;;;;;;;;6.50;6.50;;;;;7.76;53.71;97539.75;6210926;28;96628;-67
2021/12/25 00:58:09;;;;;;;;;6.00;5.40;;;;;7.86;53.22;97533.78;6225649;27;96762;-65
2021/12/25 01:01:12;;;;;;;;;7.75;6.75;;;;;7.82;53.31;97542.28;6211228;28;96498;-67
2021/12/25 01:04:16;;;;;;;;;5.20;4.20;;;;;7.89;53.13;97535.97;6226084;28;96950;-65
2021/12/25 01:07:21;;;;;;;;;5.80;5.40;;;;;7.78;53.15;97533.06;6209245;28;96625;-68
2021/12/25 01:10:26;;;;;;;;;8.00;6.00;;;;;7.64;52.97;97522.84;6209227;28;97443;-67
2021/12/25 01:13:33;;;;;;;;;5.40;5.00;;;;;7.80;53.26;97568.53;6243648;27;96511;-68
2021/12/25 01:20:25;;;;;;;;;7.00;6.00;;;;;7.94;53.14;97579.81;6205161;28;97162;-68
2021/12/25 01:30:19;;;;;;;;;8.00;6.00;;;;;7.86;53.03;97604.34;6210942;28;96864;-66
2021/12/25 01:37:38;;;;;;;;;6.00;5.00;;;;;7.83;52.96;97600.25;6202580;28;97344;-65
2021/12/25 01:41:13;;;;;;;;;5.50;5.50;;;;;7.89;52.83;97605.72;6215883;28;96530;-66
2021/12/25 01:48:08;;;;;;;;;6.00;5.50;;;;;7.78;52.77;97613.56;6215762;28;96510;-68
2021/12/25 01:51:11;;;;;;;;;6.00;6.00;;;;;7.76;52.72;97606.81;6248261;27;96602;-67
2021/12/25 01:54:15;;;;;;;;;5.25;5.25;;;;;7.83;52.82;97627.09;6247845;27;97311;-68
2021/12/25 01:57:18;;;;;;;;;7.00;6.00;;;;;7.80;52.87;97629.44;6196706;28;97853;-66
2021/12/25 02:00:26;;;;;;;;;9.00;7.00;;;;;7.76;53.11;97626.41;6214229;28;96943;-68
2021/12/25 02:03:31;;;;;;;;;9.00;8.00;;;;;7.76;53.04;97621.03;6215062;28;96396;-66
2021/12/25 02:06:34;;;;;;;;;9.00;8.00;;;;;7.70;53.17;97613.94;6230964;28;97466;-68
2021/12/25 02:09:38;;;;;;;;;8.00;7.00;;;;;7.68;53.32;97607.16;6247630;27;97599;-66
2021/12/25 02:12:43;;;;;;;;;10.80;9.00;;;;;7.65;53.21;97621.84;6247788;27;97401;-67
2021/12/25 02:16:13;;;;;;;;;7.25;7.00;;;;;7.66;53.17;97631.53;6247727;27;97395;-68
2021/12/25 02:19:31;;;;;;;;;7.00;6.00;;;;;7.74;53.09;97649.13;6189507;28;97111;-67
2021/12/25 02:22:40;;;;;;;;;9.00;8.20;;;;;7.60;53.04;97632.47;6205781;28;96798;-67
2021/12/25 02:25:44;;;;;;;;;10.00;8.00;;;;;7.77;52.90;97649.47;6188432;28;97735;-68
2021/12/25 02:28:52;;;;;;;;;10.00;8.00;;;;;7.79;52.82;97649.25;6210655;28;97066;-66
2021/12/25 02:31:56;;;;;;;;;9.20;9.00;;;;;7.88;52.59;97657.75;6213303;28;97459;-67
2021/12/25 02:35:00;;;;;;;;;11.00;10.00;;;;;7.85;52.39;97661.75;6213961;28;97396;-66
2021/12/25 02:38:05;;;;;;;;;10.00;8.00;;;;;7.76;52.45;97653.22;6213278;28;96593;-68
2021/12/25 02:41:09;;;;;;;;;8.20;8.00;;;;;7.59;52.72;97663.00;6196697;28;97816;-66
2021/12/25 02:44:13;;;;;;;;;9.00;8.00;;;;;7.59;52.65;97670.25;6246754;27;97401;-68
2021/12/25 02:47:23;;;;;;;;;8.00;7.20;;;;;7.66;52.62;97677.16;6213556;28;97477;-68
2021/12/25 02:50:28;;;;;;;;;11.00;9.00;;;;;7.67;52.59;97675.28;6246731;27;96741;-68
2021/12/25 02:53:33;;;;;;;;;7.40;7.40;;;;;7.73;52.39;97688.56;6212535;28;97229;-66
2021/12/25 02:56:36;;;;;;;;;9.00;9.00;;;;;7.81;52.19;97698.97;6213124;28;97175;-68
2021/12/25 02:59:40;;;;;;;;;9.60;9.00;;;;;7.88;52.18;97703.38;6212948;28;97382;-66
2021/12/25 03:02:43;;;;;;;;;9.00;8.50;;;;;7.91;51.93;97705.59;6213022;28;96421;-66
2021/12/25 03:05:48;;;;;;;;;9.75;9.75;;;;;7.97;52.09;97718.88;6212971;28;96422;-66
2021/12/25 03:08:53;;;;;;;;;10.00;9.00;;;;;8.01;51.96;97720.09;6228929;28;98573;-66
2021/12/25 03:11:56;;;;;;;;;8.20;7.00;;;;;8.03;52.03;97725.19;6246992;27;97035;-66
2021/12/25 03:15:07;;;;;;;;;9.60;9.00;;;;;8.10;52.09;97721.34;6212506;28;96407;-67
2021/12/25 03:18:11;;;;;;;;;11.25;9.00;;;;;8.15;51.83;97728.72;6212940;28;96596;-68
2021/12/25 03:21:17;;;;;;;;;8.00;8.00;;;;;8.09;51.79;97729.63;6212521;28;97005;-66
2021/12/25 03:24:22;;;;;;;;;9.00;8.00;;;;;8.15;51.70;97726.03;6213929;28;97098;-66
2021/12/25 03:27:26;;;;;;;;;9.50;7.50;;;;;8.12;51.64;97724.59;6213000;28;97069;-66
2021/12/25 03:30:35;;;;;;;;;12.00;10.00;;;;;8.10;51.80;97728.59;6212510;28;96573;-66
2021/12/25 03:33:39;;;;;;;;;12.00;11.20;;;;;8.07;51.74;97739.78;6211918;28;98566;-67
2021/12/25 03:36:43;;;;;;;;;12.00;10.50;;;;;8.05;51.77;97742.72;6213046;28;97530;-66
2021/12/25 03:39:48;;;;;;;;;14.25;13.00;;;;;8.08;52.01;97746.78;6212879;28;97504;-66
2021/12/25 03:42:51;;;;;;;;;9.00;8.50;;;;;8.10;51.74;97747.38;6212107;28;96440;-66
2021/12/25 03:45:55;;;;;;;;;10.60;9.00;;;;;8.12;51.87;97756.81;6228765;28;96789;-66
2021/12/25 03:49:12;;;;;;;;;9.00;8.00;;;;;8.18;51.67;97755.06;6212999;28;96632;-67
2021/12/25 03:58:59;;;;;;;;;9.00;7.60;;;;;8.13;51.51;97773.75;6245942;27;97363;-67
2021/12/25 04:02:11;;;;;;;;;12.00;10.40;;;;;8.19;51.33;97781.69;6245557;27;96411;-66
2021/12/25 04:05:17;;;;;;;;;6.00;5.00;;;;;8.09;49.00;97791.38;6212123;28;96920;-67
2021/12/25 04:08:24;;;;;;;;;6.00;5.00;;;;;8.01;48.27;97802.47;6212093;28;96534;-66
2021/12/25 04:11:32;;;;;;;;;4.40;4.40;;;;;7.85;48.52;97803.94;6212344;28;97480;-67
2021/12/25 04:14:38;;;;;;;;;3.00;2.00;;;;;7.77;48.40;97812.34;6229001;28;97403;-67
2021/12/25 04:17:42;;;;;;;;;3.00;3.00;;;;;7.56;47.53;97821.72;6211651;28;96768;-67
2021/12/25 04:20:46;;;;;;;;;3.00;3.00;;;;;7.31;47.51;97823.72;6211760;28;97024;-66
2021/12/25 04:23:49;;;;;;;;;2.00;2.00;;;;;7.26;47.96;97835.13;6212888;28;96733;-65
2021/12/25 04:26:54;;;;;;;;;3.00;3.00;;;;;7.17;47.97;97849.06;6212101;28;96376;-67
2021/12/25 04:30:03;;;;;;;;;2.00;2.00;;;;;7.13;47.47;97858.59;6203506;28;96486;-65
2021/12/25 05:03:37;;;;;;;;;2.00;2.00;;;;;6.51;45.52;97922.88;6211312;28;97694;-68
2021/12/25 05:07:01;;;;;;;;;4.00;3.80;;;;;6.49;45.75;97922.31;6210659;28;97433;-68
2021/12/25 05:10:06;;;;;;;;;2.00;2.00;;;;;6.46;45.77;97924.59;6227923;28;96708;-66
2021/12/25 05:13:09;;;;;;;;;2.60;2.00;;;;;6.48;46.42;97933.22;6211250;28;96929;-68
2021/12/25 05:16:14;;;;;;;;;3.00;3.00;;;;;6.38;45.94;97938.25;6211063;28;96402;-66
2021/12/25 05:19:18;;;;;;;;;2.00;2.00;;;;;6.38;46.38;97941.75;6210676;28;97689;-66
2021/12/25 05:22:22;;;;;;;;;3.00;3.00;;;;;6.35;46.08;97944.06;6210383;28;96388;-68
2021/12/25 05:25:25;;;;;;;;;3.00;2.00;;;;;6.29;46.35;97939.56;6210124;28;97038;-68
2021/12/25 05:28:39;;;;;;;;;3.00;3.00;;;;;6.11;46.26;97920.75;6211068;28;97411;-67
2021/12/25 05:31:45;;;;;;;;;4.00;3.00;;;;;6.26;46.18;97940.78;6244599;27;97425;-66
2021/12/25 05:34:55;;;;;;;;;3.20;3.00;;;;;6.30;46.08;97944.69;6207011;28;98099;-65
2021/12/25 05:38:13;;;;;;;;;3.80;3.80;;;;;6.31;46.19;97953.53;6202978;28;96483;-65
2021/12/25 05:41:24;;;;;;;;;2.25;2.00;;;;;6.33;46.26;97967.53;6202661;28;96981;-64
2021/12/25 05:44:27;;;;;;;;;4.00;4.00;;;;;6.31;46.84;97958.88;6210784;28;96924;-66
2021/12/25 05:47:58;;;;;;;;;3.00;3.00;;;;;6.37;46.69;97964.19;6199195;28;97456;-67
2021/12/25 05:51:25;;;;;;;;;3.20;2.00;;;;;6.36;46.57;97959.03;6208138;28;96399;-66
2021/12/25 05:54:37;;;;;;;;;2.00;2.00;;;;;6.32;46.24;97988.13;6210271;28;97556;-65
2021/12/25 05:57:53;;;;;;;;;2.00;2.00;;;;;6.25;46.13;97979.31;6227281;28;97455;-65
2021/12/25 06:01:17;;;;;;;;;3.40;3.40;;;;;6.29;46.47;97996.59;6210891;28;96896;-65
2021/12/25 06:04:22;;;;;;;;;3.60;3.00;;;;;6.26;46.61;98001.53;6213727;28;97377;-67
2021/12/25 06:07:25;;;;;;;;;4.00;3.60;;;;;6.25;46.74;98003.41;6215351;28;97239;-67
2021/12/25 06:10:29;;;;;;;;;4.00;4.00;;;;;6.24;46.93;98012.47;6214114;28;96547;-67
2021/12/25 06:13:38;;;;;;;;;3.00;3.00;;;;;6.19;46.89;98019.50;6214188;28;96756;-67
2021/12/25 06:16:41;;;;;;;;;4.00;4.00;;;;;6.16;47.08;98030.66;6214530;28;96935;-65
2021/12/25 06:20:00;;;;;;;;;3.60;3.60;;;;;6.13;47.00;98039.09;6197084;28;96694;-66
2021/12/25 06:23:17;;;;;;;;;3.50;3.00;;;;;6.14;46.33;98040.72;6196683;28;98563;-64
2021/12/25 06:26:27;;;;;;;;;4.20;3.20;;;;;6.05;46.37;98058.91;6213817;28;96980;-66
2021/12/25 06:29:54;;;;;;;;;4.00;4.00;;;;;5.97;46.11;98059.94;6211552;28;97494;-64
2021/12/25 06:33:29;;;;;;;;;3.00;3.00;;;;;5.92;45.57;98062.44;6213908;28;97342;-66
2021/12/25 06:36:47;;;;;;;;;5.60;5.60;;;;;5.86;45.11;98071.28;6193407;28;96529;-66
2021/12/25 06:40:02;;;;;;;;;4.00;3.60;;;;;5.80;44.70;98082.00;6215214;28;98003;-66
2021/12/25 06:43:10;;;;;;;;;3.00;3.00;;;;;5.75;44.77;98084.50;6214091;28;96652;-66
2021/12/25 06:46:14;;;;;;;;;1.80;1.00;;;;;5.67;44.87;98088.19;6213439;28;96497;-67
2021/12/25 06:49:17;;;;;;;;;2.75;2.75;;;;;5.54;45.50;98098.94;6213178;28;96903;-65
2021/12/25 06:52:41;;;;;;;;;3.40;3.00;;;;;5.51;44.80;98099.34;6214954;28;97533;-66
2021/12/25 06:56:14;;;;;;;;;3.00;3.00;;;;;5.51;44.81;98104.72;6192710;28;97494;-67
2021/12/25 06:59:30;;;;;;;;;4.00;4.00;;;;;5.20;43.85;98070.63;6208792;28;97529;-65
2021/12/25 07:02:34;;;;;;;;;4.00;3.00;;;;;5.26;42.94;98107.19;6209070;28;96625;-66
2021/12/25 07:05:55;;;;;;;;;3.50;3.50;;;;;5.17;43.82;98127.97;6212306;28;97397;-67
2021/12/25 07:09:10;;;;;;;;;4.00;4.00;;;;;5.07;43.78;98126.72;6229989;28;96590;-66
2021/12/25 07:12:36;;;;;;;;;4.40;4.00;;;;;4.94;43.43;98121.38;6214782;28;96413;-67
2021/12/25 07:15:58;;;;;;;;;2.20;2.20;;;;;4.86;44.03;98127.75;6213989;28;96973;-65
2021/12/25 07:19:20;;;;;;;;;4.00;4.00;;;;;4.71;43.49;98122.59;6214706;28;96584;-65
2021/12/25 07:22:36;;;;;;;;;4.40;4.00;;;;;4.72;44.09;98118.06;6209921;28;96990;-68
2021/12/25 07:25:51;;;;;;;;;3.00;3.00;;;;;4.80;43.72;98141.91;6223636;28;97226;-65
2021/12/25 07:29:13;;;;;;;;;3.00;2.50;;;;;4.80;43.41;98152.56;6247253;27;96407;-66
2021/12/25 07:32:17;;;;;;;;;4.00;3.00;;;;;4.76;43.47;98143.34;6213993;28;96847;-66
2021/12/25 07:35:21;;;;;;;;;3.00;2.75;;;;;4.75;43.56;98150.50;6214011;28;96802;-67
2021/12/25 07:38:25;;;;;;;;;5.00;5.00;;;;;4.78;42.80;98162.66;6213397;28;97543;-65
2021/12/25 07:41:29;;;;;;;;;5.40;4.60;;;;;4.77;43.10;98161.84;6187927;28;97514;-67
2021/12/25 07:44:33;;;;;;;;;5.00;5.00;;;;;4.77;42.48;98163.69;6194775;28;96808;-65
2021/12/25 07:47:40;;;;;;;;;3.40;3.40;;;;;4.68;42.68;98151.53;6214109;28;96901;-65
2021/12/25 07:50:43;;;;;;;;;5.00;5.00;;;;;4.69;42.54;98155.88;6214319;28;96490;-65
2021/12/25 07:53:46;;;;;;;;;4.00;4.00;;;;;4.59;41.66;98156.25;6213287;28;97566;-67
2021/12/25 07:56:51;;;;;;;;;5.00;4.00;;;;;4.36;43.28;98169.09;6213335;28;96593;-65
2021/12/25 07:59:55;;;;;;;;;4.25;4.00;;;;;4.29;43.40;98170.94;6196444;28;99682;-65
2021/12/25 08:02:58;;;;;;;;;5.00;4.00;;;;;4.27;43.47;98180.97;6213819;28;97095;-66
2021/12/25 08:06:02;;;;;;;;;4.80;4.80;;;;;4.22;44.21;98189.56;6213009;28;96705;-65
2021/12/25 08:09:05;;;;;;;;;4.50;4.00;;;;;4.13;43.76;98187.25;6213139;28;96444;-65
2021/12/25 08:12:10;;;;;;;;;4.50;4.50;;;;;4.14;43.67;98195.06;6214005;28;97351;-65
2021/12/25 08:15:15;;;;;;;;;5.00;5.00;;;;;4.15;43.58;98186.06;6213435;28;96673;-65
2021/12/25 08:18:19;;;;;;;;;3.25;3.00;;;;;4.24;43.73;98200.03;6246717;27;97433;-67
2021/12/25 08:21:40;;;;;;;;;4.00;4.00;;;;;4.39;43.34;98202.56;6211504;28;97391;-66
2021/12/25 08:25:03;;;;;;;;;3.00;3.00;;;;;4.51;42.87;98212.47;6188201;28;96381;-68
2021/12/25 08:28:26;;;;;;;;;5.25;5.00;;;;;4.63;43.11;98202.88;6188753;28;96441;-68
2021/12/25 08:31:48;;;;;;;;;5.00;4.67;;;;;4.77;42.81;98199.22;6193517;28;97080;-67
2021/12/25 08:35:12;;;;;;;;;6.00;5.40;;;;;4.70;42.63;98201.03;6191083;28;98016;-67
2021/12/25 08:38:16;;;;;;;;;5.25;5.00;;;;;4.64;42.61;98190.34;6220577;28;97259;-67
2021/12/25 08:41:21;;;;;;;;;5.00;5.00;;;;;4.67;42.78;98189.94;6223396;28;97838;-66
2021/12/25 08:44:33;;;;;;;;;6.00;5.60;;;;;4.70;42.38;98201.03;6211845;28;96622;-65
2021/12/25 08:47:38;;;;;;;;;5.00;4.00;;;;;4.84;42.56;98204.56;6205661;28;97883;-65
2021/12/25 08:50:45;;;;;;;;;5.20;5.20;;;;;4.90;41.75;98214.44;6212303;28;97371;-66
2021/12/25 08:53:49;;;;;;;;;5.00;5.00;;;;;4.93;41.84;98213.22;6212751;28;97425;-67
2021/12/25 08:56:52;;;;;;;;;7.00;6.00;;;;;4.94;42.15;98213.00;6213106;28;96961;-66
2021/12/25 08:59:57;;;;;;;;;4.80;4.80;;;;;4.94;41.43;98214.84;6213233;28;96383;-65
2021/12/25 09:03:01;;;;;;;;;4.00;4.00;;;;;4.93;42.46;98222.06;6208337;28;96950;-66
2021/12/25 09:06:05;;;;;;;;;7.00;6.00;;;;;4.93;42.08;98221.25;6211305;28;96850;-65
2021/12/25 09:09:09;;;;;;;;;7.00;6.40;;;;;5.00;42.49;98220.22;6211969;28;98058;-67
2021/12/25 09:12:15;;;;;;;;;6.00;6.00;;;;;5.16;42.73;98224.34;6212424;28;96480;-65
2021/12/25 09:15:20;;;;;;;;;7.00;7.00;;;;;5.26;42.30;98218.63;6211208;28;96672;-66
2021/12/25 09:18:23;;;;;;;;;9.00;7.00;;;;;5.36;41.42;98219.88;6209465;28;96625;-65
2021/12/25 09:21:27;;;;;;;;;5.40;5.00;;;;;5.33;41.51;98222.09;6208714;28;97733;-66
2021/12/25 09:24:30;;;;;;;;;6.00;5.00;;;;;5.40;42.14;98228.28;6210729;28;97377;-66
2021/12/25 09:27:34;;;;;;;;;7.60;7.00;;;;;5.49;42.22;98237.75;6208833;28;96774;-66
2021/12/25 09:30:39;;;;;;;;;8.40;8.00;;;;;5.50;41.99;98226.84;6202330;28;96921;-67
2021/12/25 09:33:42;;;;;;;;;6.00;6.00;;;;;5.51;42.00;98209.78;6199401;28;96804;-68
2021/12/25 09:36:52;;;;;;;;;10.00;9.00;;;;;5.46;41.16;98214.94;6205999;28;97654;-65
2021/12/25 09:39:55;;;;;;;;;9.00;8.80;;;;;5.48;41.48;98217.38;6240770;27;97218;-67
2021/12/25 09:42:58;;;;;;;;;6.00;6.00;;;;;5.41;41.39;98219.25;6215080;28;97259;-65
2021/12/25 09:46:03;;;;;;;;;6.50;6.00;;;;;5.51;41.78;98228.50;6214452;28;97415;-67
2021/12/25 09:49:07;;;;;;;;;8.00;6.60;;;;;5.49;41.09;98227.06;6216260;28;96458;-64
2021/12/25 09:52:10;;;;;;;;;7.00;7.00;;;;;5.44;41.10;98219.66;6215168;28;97572;-65
2021/12/25 09:55:16;;;;;;;;;9.50;7.75;;;;;5.40;40.92;98223.75;6214256;28;97626;-66
2021/12/25 09:58:20;;;;;;;;;7.50;7.50;;;;;5.32;40.99;98217.81;6213176;28;96712;-65
2021/12/25 10:01:40;;;;;;;;;6.25;5.25;;;;;5.35;41.40;98223.56;6210517;28;97906;-64
2021/12/25 10:04:46;;;;;;;;;7.50;7.00;;;;;5.39;40.95;98214.09;6212515;28;98965;-65
2021/12/25 10:08:00;;;;;;;;;8.50;7.50;;;;;5.20;40.56;98186.34;6209132;28;97523;-67
2021/12/25 10:11:04;;;;;;;;;7.80;7.20;;;;;5.42;40.55;98203.00;6207026;28;98067;-65
2021/12/25 10:14:07;;;;;;;;;6.50;6.00;;;;;5.42;39.31;98192.31;6207092;28;97432;-64
2021/12/25 10:17:19;;;;;;;;;7.20;6.20;;;;;5.47;39.62;98192.50;6213998;28;97413;-66
2021/12/25 10:20:24;;;;;;;;;8.00;7.00;;;;;5.70;39.55;98181.38;6212079;28;97449;-65
2021/12/25 10:23:30;;;;;;;;;7.20;7.00;;;;;5.84;38.17;98185.69;6213981;28;96758;-65
2021/12/25 10:26:34;;;;;;;;;7.00;7.00;;;;;5.96;38.24;98193.94;6199156;28;97129;-66
2021/12/25 10:29:38;;;;;;;;;6.60;6.00;;;;;6.01;38.07;98186.09;6201015;28;96934;-66
2021/12/25 10:32:43;;;;;;;;;8.60;8.60;;;;;6.00;37.85;98195.97;6197817;28;96463;-65
2021/12/25 10:35:46;;;;;;;;;5.20;5.00;;;;;6.02;38.05;98193.06;6212549;28;99551;-66
2021/12/25 10:38:58;;;;;;;;;8.00;6.40;;;;;6.05;37.37;98211.41;6213565;28;97449;-65
2021/12/25 10:42:10;;;;;;;;;9.40;6.80;;;;;6.05;37.25;98201.53;6211616;28;96783;-65
2021/12/25 10:45:15;;;;;;;;;6.00;5.50;;;;;6.09;37.20;98205.44;6210805;28;96809;-66
2021/12/25 10:48:27;;;;;;;;;7.00;6.50;;;;;6.12;36.85;98193.47;6208925;28;97620;-65
2021/12/25 10:51:31;;;;;;;;;7.50;7.50;;;;;6.21;36.82;98194.88;6213268;28;96640;-66
2021/12/25 10:54:38;;;;;;;;;8.00;7.00;;;;;6.24;36.55;98202.50;6208345;28;99528;-65
2021/12/25 10:57:44;;;;;;;;;6.00;6.00;;;;;6.25;36.03;98203.31;6212168;28;98022;-66
2021/12/25 11:00:54;;;;;;;;;5.00;5.00;;;;;6.31;36.00;98211.31;6212730;28;97532;-66
2021/12/25 11:03:59;;;;;;;;;8.60;7.00;;;;;6.40;36.31;98223.44;6211626;28;96502;-66
2021/12/25 11:07:16;;;;;;;;;7.60;5.60;;;;;6.42;35.30;98212.53;6211392;28;99624;-66
2021/12/25 11:10:20;;;;;;;;;7.00;5.00;;;;;6.15;34.95;98168.97;6210092;28;96660;-65
2021/12/25 11:13:26;;;;;;;;;6.40;5.40;;;;;6.44;34.78;98203.25;6227824;28;96974;-66
2021/12/25 11:16:32;;;;;;;;;7.00;6.00;;;;;6.49;34.45;98208.81;6201671;28;97501;-66
2021/12/25 11:19:56;;;;;;;;;6.00;5.00;;;;;6.48;34.46;98217.03;6211215;28;97217;-65
2021/12/25 11:23:01;;;;;;;;;5.00;4.00;;;;;6.46;34.58;98214.56;6210773;28;97437;-65
2021/12/25 11:26:04;;;;;;;;;5.00;5.00;;;;;6.46;34.61;98213.75;6211541;28;98242;-65
2021/12/25 11:29:11;;;;;;;;;4.60;4.60;;;;;6.39;34.94;98212.97;6212710;28;97154;-66
2021/12/25 11:32:18;;;;;;;;;4.60;4.60;;;;;6.36;35.03;98214.19;6211874;28;96755;-66
2021/12/25 11:35:24;;;;;;;;;5.20;3.60;;;;;6.40;35.22;98195.88;6216719;28;96767;-65
2021/12/25 11:38:27;;;;;;;;;4.80;4.80;;;;;6.44;35.34;98202.44;6210965;28;96452;-66
2021/12/25 11:41:31;;;;;;;;;6.60;6.00;;;;;6.44;35.25;98197.91;6210187;28;97037;-65
2021/12/25 11:44:41;;;;;;;;;3.25;3.00;;;;;6.47;34.57;98199.31;6208895;28;97364;-65
2021/12/25 11:47:46;;;;;;;;;6.00;4.60;;;;;6.38;35.02;98177.34;6205022;28;98147;-66
2021/12/25 11:50:52;;;;;;;;;8.00;7.00;;;;;6.52;34.44;98194.16;6207337;28;97193;-66
2021/12/25 11:54:11;;;;;;;;;5.60;5.00;;;;;6.44;35.20;98178.34;6207159;28;97445;-65
2021/12/25 11:57:35;;;;;;;;;7.00;6.60;;;;;6.57;34.85;98190.84;6209758;28;96562;-66
2021/12/25 12:00:44;;;;;;;;;6.00;5.00;;;;;6.49;34.83;98194.59;6220103;28;96926;-65
2021/12/25 12:03:54;;;;;;;;;7.00;6.50;;;;;6.45;34.98;98198.72;6208409;28;97736;-65
2021/12/25 12:07:12;;;;;;;;;7.00;6.80;;;;;6.35;34.03;98212.53;6208311;28;97431;-66
2021/12/25 12:10:56;;;;;;;;;5.50;5.50;;;;;6.40;34.79;98211.94;6205558;28;97150;-65
2021/12/25 12:14:23;;;;;;;;;8.00;7.20;;;;;6.26;35.53;98216.47;6197130;28;96750;-65
2021/12/25 12:17:47;;;;;;;;;5.00;5.00;;;;;6.32;35.29;98226.34;6206118;28;98399;-65
2021/12/25 12:20:56;;;;;;;;;7.00;6.00;;;;;5.74;35.27;98139.00;6205437;28;97476;-65
2021/12/25 12:24:37;;;;;;;;;6.00;6.00;;;;;6.32;34.88;98234.38;6212533;28;96677;-67
2021/12/25 12:27:42;;;;;;;;;7.60;6.40;;;;;6.24;34.73;98233.81;6211514;28;96645;-65
2021/12/25 12:30:49;;;;;;;;;5.60;4.00;;;;;6.22;35.04;98233.16;6211728;28;96509;-65
2021/12/25 12:33:55;;;;;;;;;6.00;6.00;;;;;6.24;35.61;98223.91;6212321;28;96708;-65
2021/12/25 12:37:29;;;;;;;;;8.20;7.00;;;;;6.19;35.13;98234.44;6207099;28;99021;-66
2021/12/25 12:40:34;;;;;;;;;7.00;6.50;;;;;6.05;35.14;98230.97;6213557;28;96537;-67
2021/12/25 12:43:59;;;;;;;;;9.00;8.00;;;;;5.89;35.32;98227.88;6212976;28;97469;-67
2021/12/25 12:47:06;;;;;;;;;5.00;5.00;;;;;5.84;34.98;98219.63;6213619;28;96585;-66
2021/12/25 12:50:11;;;;;;;;;4.00;4.00;;;;;5.89;35.37;98236.75;6210232;28;96754;-65
2021/12/25 12:53:15;;;;;;;;;8.00;6.50;;;;;5.94;35.19;98239.63;6203085;28;96963;-65
2021/12/25 12:56:21;;;;;;;;;7.00;6.00;;;;;5.97;35.56;98243.72;6210379;28;96525;-65
2021/12/25 12:59:25;;;;;;;;;6.40;5.00;;;;;5.98;35.00;98248.88;6211483;28;97164;-66
2021/12/25 13:02:31;;;;;;;;;6.00;5.00;;;;;5.94;34.06;98252.16;6210519;28;98013;-65
2021/12/25 13:05:40;;;;;;;;;7.00;5.50;;;;;5.88;34.93;98258.34;6209730;28;96372;-66
2021/12/25 13:08:46;;;;;;;;;7.40;7.00;;;;;5.81;35.21;98255.66;6212262;28;96475;-65
2021/12/25 13:11:58;;;;;;;;;9.60;7.60;;;;;5.80;35.55;98251.34;6212291;28;96482;-68
2021/12/25 13:15:09;;;;;;;;;7.40;6.00;;;;;5.82;35.15;98270.66;6214930;28;96671;-65
2021/12/25 13:18:13;;;;;;;;;6.60;6.60;;;;;5.86;35.33;98271.91;6214919;28;97139;-64
2021/12/25 13:21:21;;;;;;;;;9.25;9.00;;;;;5.86;35.96;98276.44;6227362;28;96558;-66
2021/12/25 13:24:24;;;;;;;;;7.40;6.60;;;;;5.81;35.84;98276.22;6213726;28;96585;-65
2021/12/25 13:27:29;;;;;;;;;6.80;6.00;;;;;5.79;35.95;98279.09;6213662;28;98053;-67
2021/12/25 13:30:33;;;;;;;;;7.00;6.60;;;;;5.75;35.98;98291.25;6214564;28;97241;-66
2021/12/25 13:33:44;;;;;;;;;8.00;7.25;;;;;5.76;36.05;98287.53;6214394;28;97405;-66
2021/12/25 13:36:51;;;;;;;;;7.00;6.00;;;;;5.72;36.21;98286.28;6214771;28;97434;-67
2021/12/25 13:39:55;;;;;;;;;6.75;6.00;;;;;5.72;36.37;98283.63;6215753;28;99169;-65
2021/12/25 13:43:07;;;;;;;;;10.00;8.40;;;;;5.67;36.47;98289.56;6214880;28;97459;-67
2021/12/25 13:46:10;;;;;;;;;8.00;7.00;;;;;5.44;36.70;98258.91;6209485;28;97436;-66
2021/12/25 13:49:35;;;;;;;;;7.75;7.75;;;;;5.55;36.41;98295.75;6212264;28;97573;-66
2021/12/25 13:52:41;;;;;;;;;8.00;7.00;;;;;5.50;36.48;98303.56;6209371;28;96423;-65
2021/12/25 13:55:47;;;;;;;;;7.00;7.00;;;;;5.41;36.54;98300.25;6191691;28;96976;-65
2021/12/25 13:58:51;;;;;;;;;8.40;8.40;;;;;5.37;36.60;98306.22;6199297;28;97269;-67
2021/12/25 14:01:57;;;;;;;;;11.00;10.00;;;;;5.01;36.66;98293.16;6212358;28;96865;-66
2021/12/25 14:05:01;;;;;;;;;10.25;7.50;;;;;5.15;36.41;98319.72;6216570;28;97149;-66
2021/12/25 14:08:05;;;;;;;;;8.40;8.00;;;;;4.83;36.97;98295.56;6212844;28;96661;-64
2021/12/25 14:11:09;;;;;;;;;8.60;7.00;;;;;4.90;36.75;98334.63;6218220;28;96649;-67
2021/12/25 14:14:14;;;;;;;;;9.00;8.00;;;;;4.97;37.17;98324.81;6216569;28;97568;-67
2021/12/25 14:17:17;;;;;;;;;8.40;8.00;;;;;4.88;37.05;98318.00;6215465;28;96655;-66
2021/12/25 14:20:23;;;;;;;;;11.20;10.00;;;;;4.83;36.83;98325.78;6215917;28;97066;-66
2021/12/25 14:23:26;;;;;;;;;10.00;8.75;;;;;4.79;36.23;98336.00;6211716;28;97464;-65
2021/12/25 14:26:30;;;;;;;;;7.40;6.40;;;;;4.79;36.50;98338.69;6213685;28;98044;-66
2021/12/25 14:29:34;;;;;;;;;10.00;9.00;;;;;4.76;35.85;98338.25;6213531;28;97487;-66
2021/12/25 14:32:39;;;;;;;;;8.60;8.00;;;;;4.75;36.36;98334.75;6214402;28;96598;-66
2021/12/25 14:35:44;;;;;;;;;7.00;6.40;;;;;4.71;36.50;98340.69;6215171;28;96762;-65
2021/12/25 14:38:49;;;;;;;;;7.00;7.00;;;;;4.63;36.70;98354.22;6208214;28;97651;-66
2021/12/25 14:41:52;;;;;;;;;9.00;8.00;;;;;4.50;36.13;98349.59;6212842;28;96445;-65
2021/12/25 14:45:00;;;;;;;;;6.20;6.20;;;;;4.59;36.60;98342.28;6207362;28;97453;-64
2021/12/25 14:48:03;;;;;;;;;9.80;7.80;;;;;4.44;36.80;98357.59;6188549;28;97390;-65
2021/12/25 14:51:09;;;;;;;;;10.00;9.25;;;;;4.37;37.51;98357.53;6213748;28;97804;-65
2021/12/25 14:54:12;;;;;;;;;12.00;10.67;;;;;4.33;37.87;98356.28;6215995;28;97460;-67
2021/12/25 14:57:22;;;;;;;;;9.00;9.00;;;;;4.25;37.80;98341.22;6212951;28;97072;-65
2021/12/25 15:00:27;;;;;;;;;10.60;9.00;;;;;4.26;37.67;98348.22;6196908;28;96448;-65
2021/12/25 15:03:30;;;;;;;;;11.50;9.75;;;;;4.19;37.87;98346.53;6201791;28;96479;-65
2021/12/25 15:06:35;;;;;;;;;12.50;11.00;;;;;4.17;38.26;98345.91;6194967;28;98205;-65
2021/12/25 15:09:42;;;;;;;;;14.00;12.00;;;;;4.22;38.36;98359.47;6213755;28;97970;-64
2021/12/25 15:12:45;;;;;;;;;11.00;10.40;;;;;4.33;39.20;98366.97;6198800;28;96681;-64
2021/12/25 15:15:54;;;;;;;;;12.20;11.20;;;;;4.33;38.53;98377.63;6214653;28;96839;-64
2021/12/25 15:18:57;;;;;;;;;14.00;12.00;;;;;4.30;38.79;98360.16;6214558;28;96599;-65
2021/12/25 15:22:06;;;;;;;;;10.00;9.00;;;;;4.33;38.76;98365.13;6214671;28;97027;-66
2021/12/25 15:25:15;;;;;;;;;15.20;14.00;;;;;4.29;38.57;98363.03;6214767;28;97394;-66
2021/12/25 15:28:25;;;;;;;;;10.00;9.00;;;;;4.33;38.10;98369.63;6213520;28;96841;-65
2021/12/25 15:31:39;;;;;;;;;11.20;8.20;;;;;4.25;38.69;98375.91;6213892;28;98127;-66
2021/12/25 15:34:50;;;;;;;;;8.00;8.00;;;;;4.11;38.83;98376.84;6209554;28;96945;-66
2021/12/25 15:37:54;;;;;;;;;11.00;9.00;;;;;4.12;38.81;98383.00;6190172;28;96506;-65
2021/12/25 15:40:57;;;;;;;;;9.00;8.00;;;;;4.12;38.64;98377.66;6211197;28;97372;-66
2021/12/25 15:44:00;;;;;;;;;7.00;6.00;;;;;4.07;38.10;98367.56;6214461;28;96436;-66
2021/12/25 15:47:06;;;;;;;;;7.75;6.00;;;;;4.01;38.38;98372.88;6213635;28;97111;-66
2021/12/25 15:50:12;;;;;;;;;9.00;7.80;;;;;4.00;38.39;98379.22;6212763;28;97366;-67
2021/12/25 15:53:16;;;;;;;;;9.00;8.00;;;;;3.91;38.75;98391.84;6213275;28;97147;-67